sensor_id;sensor_type;location;lat;lon;timestamp;temperature;humidity
15241;DHT22;7723;52.170;9.978;2023-02-16T00:01:16;3.40;99.90
15241;DHT22;7723;52.170;9.978;2023-02-16T00:03:44;3.50;99.90
15241;DHT22;7723;52.170;9.978;2023-02-16T00:06:12;3.60;99.90
15241;DHT22;7723;52.170;9.978;2023-02-16T00:08:42;3.60;99.90
15241;DHT22;7723;52.170;9.978;2023-02-16T00:11:16;3.60;99.90
15241;DHT22;7723;52.170;9.978;2023-02-16T00:14:02;3.60;99.90
15241;DHT22;7723;52.170;9.978;2023-02-16T00:16:30;3.50;99.90
15241;DHT22;7723;52.170;9.978;2023-02-16T00:18:57;3.50;99.90
15241;DHT22;7723;52.170;9.978;2023-02-16T00:21:25;3.50;99.90
15241;DHT22;7723;52.170;9.978;2023-02-16T00:23:53;3.50;99.90
15241;DHT22;7723;52.170;9.978;2023-02-16T00:26:21;3.40;99.90
15241;DHT22;7723;52.170;9.978;2023-02-16T00:28:50;3.50;99.90
15241;DHT22;7723;52.170;9.978;2023-02-16T00:31:20;3.50;99.90
15241;DHT22;7723;52.170;9.978;2023-02-16T00:33:48;3.40;99.90
15241;DHT22;7723;52.170;9.978;2023-02-16T00:36:15;3.40;99.90
15241;DHT22;7723;52.170;9.978;2023-02-16T00:38:44;3.40;99.90
15241;DHT22;7723;52.170;9.978;2023-02-16T00:41:15;3.30;99.90
15241;DHT22;7723;52.170;9.978;2023-02-16T00:43:57;3.30;99.90
15241;DHT22;7723;52.170;9.978;2023-02-16T00:46:24;3.20;99.90
15241;DHT22;7723;52.170;9.978;2023-02-16T00:48:51;3.20;99.90
15241;DHT22;7723;52.170;9.978;2023-02-16T00:51:18;3.10;99.90
15241;DHT22;7723;52.170;9.978;2023-02-16T00:53:47;3.20;99.90
15241;DHT22;7723;52.170;9.978;2023-02-16T00:56:17;3.20;99.90
15241;DHT22;7723;52.170;9.978;2023-02-16T00:58:49;3.20;99.90
15241;DHT22;7723;52.170;9.978;2023-02-16T01:01:20;3.20;99.90
15241;DHT22;7723;52.170;9.978;2023-02-16T01:03:49;3.10;99.90
15241;DHT22;7723;52.170;9.978;2023-02-16T01:06:16;3.00;99.90
15241;DHT22;7723;52.170;9.978;2023-02-16T01:09:16;3.00;99.90
15241;DHT22;7723;52.170;9.978;2023-02-16T01:12:03;3.10;99.90
15241;DHT22;7723;52.170;9.978;2023-02-16T01:14:31;3.10;99.90
15241;DHT22;7723;52.170;9.978;2023-02-16T01:16:59;3.10;99.90
15241;DHT22;7723;52.170;9.978;2023-02-16T01:19:26;3.00;99.90
15241;DHT22;7723;52.170;9.978;2023-02-16T01:21:53;2.90;99.90
15241;DHT22;7723;52.170;9.978;2023-02-16T01:24:22;2.90;99.90
15241;DHT22;7723;52.170;9.978;2023-02-16T01:26:50;2.90;99.90
15241;DHT22;7723;52.170;9.978;2023-02-16T01:29:18;2.90;99.90
15241;DHT22;7723;52.170;9.978;2023-02-16T01:31:45;2.90;99.90
15241;DHT22;7723;52.170;9.978;2023-02-16T01:34:13;2.90;99.90
15241;DHT22;7723;52.170;9.978;2023-02-16T01:36:42;2.90;99.90
15241;DHT22;7723;52.170;9.978;2023-02-16T01:39:11;2.90;99.90
15241;DHT22;7723;52.170;9.978;2023-02-16T01:41:53;3.00;99.90
15241;DHT22;7723;52.170;9.978;2023-02-16T01:44:24;2.90;99.90
15241;DHT22;7723;52.170;9.978;2023-02-16T01:46:57;2.90;99.90
15241;DHT22;7723;52.170;9.978;2023-02-16T01:49:26;2.90;99.90
15241;DHT22;7723;52.170;9.978;2023-02-16T01:51:57;2.90;99.90
15241;DHT22;7723;52.170;9.978;2023-02-16T01:54:34;3.00;99.90
15241;DHT22;7723;52.170;9.978;2023-02-16T01:57:08;2.90;99.90
15241;DHT22;7723;52.170;9.978;2023-02-16T01:59:58;2.90;99.90
15241;DHT22;7723;52.170;9.978;2023-02-16T02:05:14;2.90;99.90
15241;DHT22;7723;52.170;9.978;2023-02-16T02:08:17;2.90;99.90
15241;DHT22;7723;52.170;9.978;2023-02-16T02:10:58;3.10;99.90
15241;DHT22;7723;52.170;9.978;2023-02-16T02:13:30;3.10;99.90
15241;DHT22;7723;52.170;9.978;2023-02-16T02:16:01;3.10;99.90
15241;DHT22;7723;52.170;9.978;2023-02-16T02:18:30;3.00;99.90
15241;DHT22;7723;52.170;9.978;2023-02-16T02:21:08;3.00;99.90
15241;DHT22;7723;52.170;9.978;2023-02-16T02:24:17;3.00;99.90
15241;DHT22;7723;52.170;9.978;2023-02-16T02:27:01;3.00;99.90
15241;DHT22;7723;52.170;9.978;2023-02-16T02:29:50;2.90;99.90
15241;DHT22;7723;52.170;9.978;2023-02-16T02:32:26;2.80;99.90
15241;DHT22;7723;52.170;9.978;2023-02-16T02:35:10;2.80;99.90
15241;DHT22;7723;52.170;9.978;2023-02-16T02:37:45;2.90;99.90
15241;DHT22;7723;52.170;9.978;2023-02-16T02:40:17;2.90;99.90
15241;DHT22;7723;52.170;9.978;2023-02-16T02:42:56;3.00;99.90
15241;DHT22;7723;52.170;9.978;2023-02-16T02:45:31;3.00;99.90
15241;DHT22;7723;52.170;9.978;2023-02-16T02:48:00;3.10;99.90
15241;DHT22;7723;52.170;9.978;2023-02-16T02:50:47;3.10;99.90
15241;DHT22;7723;52.170;9.978;2023-02-16T02:53:35;3.20;99.90
15241;DHT22;7723;52.170;9.978;2023-02-16T02:56:04;3.00;99.90
15241;DHT22;7723;52.170;9.978;2023-02-16T02:58:54;3.00;99.90
15241;DHT22;7723;52.170;9.978;2023-02-16T03:01:42;3.00;99.90
15241;DHT22;7723;52.170;9.978;2023-02-16T03:04:13;3.00;99.90
15241;DHT22;7723;52.170;9.978;2023-02-16T03:06:44;2.90;99.90
15241;DHT22;7723;52.170;9.978;2023-02-16T03:09:13;3.00;99.90
15241;DHT22;7723;52.170;9.978;2023-02-16T03:11:42;2.90;99.90
15241;DHT22;7723;52.170;9.978;2023-02-16T03:14:32;3.00;99.90
15241;DHT22;7723;52.170;9.978;2023-02-16T03:17:02;2.90;99.90
15241;DHT22;7723;52.170;9.978;2023-02-16T03:19:50;2.80;99.90
15241;DHT22;7723;52.170;9.978;2023-02-16T03:22:36;2.80;99.90
15241;DHT22;7723;52.170;9.978;2023-02-16T03:25:22;1.40;99.90
15241;DHT22;7723;52.170;9.978;2023-02-16T03:28:10;2.60;99.90
15241;DHT22;7723;52.170;9.978;2023-02-16T03:30:57;2.60;99.90
15241;DHT22;7723;52.170;9.978;2023-02-16T03:33:26;2.50;99.90
15241;DHT22;7723;52.170;9.978;2023-02-16T03:35:55;2.50;99.90
15241;DHT22;7723;52.170;9.978;2023-02-16T03:38:22;2.40;99.90
15241;DHT22;7723;52.170;9.978;2023-02-16T03:40:51;2.40;99.90
15241;DHT22;7723;52.170;9.978;2023-02-16T03:43:23;2.40;99.90
15241;DHT22;7723;52.170;9.978;2023-02-16T03:45:50;2.30;99.90
15241;DHT22;7723;52.170;9.978;2023-02-16T03:48:19;2.20;99.90
15241;DHT22;7723;52.170;9.978;2023-02-16T03:50:46;2.20;99.90
15241;DHT22;7723;52.170;9.978;2023-02-16T03:53:14;2.30;99.90
15241;DHT22;7723;52.170;9.978;2023-02-16T03:55:43;2.20;99.90
15241;DHT22;7723;52.170;9.978;2023-02-16T03:58:12;2.20;99.90
15241;DHT22;7723;52.170;9.978;2023-02-16T04:00:40;2.30;99.90
15241;DHT22;7723;52.170;9.978;2023-02-16T04:09:52;2.50;99.90
15241;DHT22;7723;52.170;9.978;2023-02-16T04:12:19;2.30;99.90
15241;DHT22;7723;52.170;9.978;2023-02-16T04:15:01;2.30;99.90
15241;DHT22;7723;52.170;9.978;2023-02-16T04:17:28;2.20;99.90
15241;DHT22;7723;52.170;9.978;2023-02-16T04:19:56;2.10;99.90
15241;DHT22;7723;52.170;9.978;2023-02-16T04:22:23;2.10;99.90
15241;DHT22;7723;52.170;9.978;2023-02-16T04:24:51;2.10;99.90
15241;DHT22;7723;52.170;9.978;2023-02-16T04:27:19;2.10;99.90
15241;DHT22;7723;52.170;9.978;2023-02-16T04:29:46;2.40;99.90
15241;DHT22;7723;52.170;9.978;2023-02-16T04:32:13;2.10;99.90
15241;DHT22;7723;52.170;9.978;2023-02-16T04:34:40;2.10;99.90
15241;DHT22;7723;52.170;9.978;2023-02-16T04:37:07;2.20;99.90
15241;DHT22;7723;52.170;9.978;2023-02-16T04:39:34;2.10;99.90
15241;DHT22;7723;52.170;9.978;2023-02-16T04:42:03;2.20;99.90
15241;DHT22;7723;52.170;9.978;2023-02-16T04:44:30;2.20;99.90
15241;DHT22;7723;52.170;9.978;2023-02-16T04:46:57;2.30;99.90
15241;DHT22;7723;52.170;9.978;2023-02-16T04:49:25;2.30;99.90
15241;DHT22;7723;52.170;9.978;2023-02-16T04:51:52;2.30;99.90
15241;DHT22;7723;52.170;9.978;2023-02-16T04:54:19;2.30;99.90
15241;DHT22;7723;52.170;9.978;2023-02-16T04:56:46;2.40;99.90
15241;DHT22;7723;52.170;9.978;2023-02-16T04:59:15;2.40;99.90
15241;DHT22;7723;52.170;9.978;2023-02-16T05:01:42;2.40;99.90
15241;DHT22;7723;52.170;9.978;2023-02-16T05:04:10;2.40;99.90
15241;DHT22;7723;52.170;9.978;2023-02-16T05:06:37;2.40;99.90
15241;DHT22;7723;52.170;9.978;2023-02-16T05:09:05;2.40;99.90
15241;DHT22;7723;52.170;9.978;2023-02-16T05:11:33;2.30;99.90
15241;DHT22;7723;52.170;9.978;2023-02-16T05:14:22;2.30;99.90
15241;DHT22;7723;52.170;9.978;2023-02-16T05:17:12;2.20;99.90
15241;DHT22;7723;52.170;9.978;2023-02-16T05:19:39;2.20;99.90
15241;DHT22;7723;52.170;9.978;2023-02-16T05:22:07;2.20;99.90
15241;DHT22;7723;52.170;9.978;2023-02-16T05:24:35;2.20;99.90
15241;DHT22;7723;52.170;9.978;2023-02-16T05:27:03;2.30;99.90
15241;DHT22;7723;52.170;9.978;2023-02-16T05:29:32;2.20;99.90
15241;DHT22;7723;52.170;9.978;2023-02-16T05:31:59;2.00;99.90
15241;DHT22;7723;52.170;9.978;2023-02-16T05:34:27;2.20;99.90
15241;DHT22;7723;52.170;9.978;2023-02-16T05:36:54;2.20;99.90
15241;DHT22;7723;52.170;9.978;2023-02-16T05:39:21;2.10;99.90
15241;DHT22;7723;52.170;9.978;2023-02-16T05:41:48;1.90;99.90
15241;DHT22;7723;52.170;9.978;2023-02-16T05:44:15;1.90;99.90
15241;DHT22;7723;52.170;9.978;2023-02-16T05:46:44;1.80;99.90
15241;DHT22;7723;52.170;9.978;2023-02-16T05:49:12;1.90;99.90
15241;DHT22;7723;52.170;9.978;2023-02-16T05:51:39;1.90;99.90
15241;DHT22;7723;52.170;9.978;2023-02-16T05:54:07;2.10;99.90
15241;DHT22;7723;52.170;9.978;2023-02-16T05:56:35;2.10;99.90
15241;DHT22;7723;52.170;9.978;2023-02-16T05:59:02;2.00;99.90
15241;DHT22;7723;52.170;9.978;2023-02-16T06:01:29;2.10;99.90
15241;DHT22;7723;52.170;9.978;2023-02-16T06:03:58;2.20;99.90
15241;DHT22;7723;52.170;9.978;2023-02-16T06:06:25;2.20;99.90
15241;DHT22;7723;52.170;9.978;2023-02-16T06:08:52;2.10;99.90
15241;DHT22;7723;52.170;9.978;2023-02-16T06:11:19;2.10;99.90
15241;DHT22;7723;52.170;9.978;2023-02-16T06:14:03;2.10;99.90
15241;DHT22;7723;52.170;9.978;2023-02-16T06:16:32;2.20;99.90
15241;DHT22;7723;52.170;9.978;2023-02-16T06:19:01;2.20;99.90
15241;DHT22;7723;52.170;9.978;2023-02-16T06:21:29;2.20;99.90
15241;DHT22;7723;52.170;9.978;2023-02-16T06:23:56;2.20;99.90
15241;DHT22;7723;52.170;9.978;2023-02-16T06:26:24;2.20;99.90
15241;DHT22;7723;52.170;9.978;2023-02-16T06:28:51;2.20;99.90
15241;DHT22;7723;52.170;9.978;2023-02-16T06:31:18;2.20;99.90
15241;DHT22;7723;52.170;9.978;2023-02-16T06:33:46;2.30;99.90
15241;DHT22;7723;52.170;9.978;2023-02-16T06:36:15;2.20;99.90
15241;DHT22;7723;52.170;9.978;2023-02-16T06:38:42;2.30;99.90
15241;DHT22;7723;52.170;9.978;2023-02-16T06:41:10;2.30;99.90
15241;DHT22;7723;52.170;9.978;2023-02-16T06:43:38;2.40;99.90
15241;DHT22;7723;52.170;9.978;2023-02-16T06:46:06;2.40;99.90
15241;DHT22;7723;52.170;9.978;2023-02-16T06:48:33;2.50;99.90
15241;DHT22;7723;52.170;9.978;2023-02-16T06:51:00;2.50;99.90
15241;DHT22;7723;52.170;9.978;2023-02-16T06:53:28;2.50;99.90
15241;DHT22;7723;52.170;9.978;2023-02-16T06:55:55;2.50;99.90
15241;DHT22;7723;52.170;9.978;2023-02-16T06:58:23;2.60;99.90
15241;DHT22;7723;52.170;9.978;2023-02-16T07:00:50;2.60;99.90
15241;DHT22;7723;52.170;9.978;2023-02-16T07:03:20;2.70;99.90
15241;DHT22;7723;52.170;9.978;2023-02-16T07:05:48;2.70;99.90
15241;DHT22;7723;52.170;9.978;2023-02-16T07:08:15;2.80;99.90
15241;DHT22;7723;52.170;9.978;2023-02-16T07:10:44;2.90;99.90
15241;DHT22;7723;52.170;9.978;2023-02-16T07:13:12;3.00;99.90
15241;DHT22;7723;52.170;9.978;2023-02-16T07:15:39;3.00;99.90
15241;DHT22;7723;52.170;9.978;2023-02-16T07:18:06;3.20;99.90
15241;DHT22;7723;52.170;9.978;2023-02-16T07:20:33;3.30;99.90
15241;DHT22;7723;52.170;9.978;2023-02-16T07:23:01;3.40;99.90
15241;DHT22;7723;52.170;9.978;2023-02-16T07:25:28;3.60;99.90
15241;DHT22;7723;52.170;9.978;2023-02-16T07:27:56;3.70;99.90
15241;DHT22;7723;52.170;9.978;2023-02-16T07:30:24;3.80;99.90
15241;DHT22;7723;52.170;9.978;2023-02-16T07:32:51;3.90;99.90
15241;DHT22;7723;52.170;9.978;2023-02-16T07:35:18;4.00;99.90
15241;DHT22;7723;52.170;9.978;2023-02-16T07:37:46;4.00;99.90
15241;DHT22;7723;52.170;9.978;2023-02-16T07:40:14;4.00;99.90
15241;DHT22;7723;52.170;9.978;2023-02-16T07:42:41;4.00;99.90
15241;DHT22;7723;52.170;9.978;2023-02-16T07:45:10;4.10;99.90
15241;DHT22;7723;52.170;9.978;2023-02-16T07:47:37;4.20;99.90
15241;DHT22;7723;52.170;9.978;2023-02-16T07:50:05;4.30;99.90
15241;DHT22;7723;52.170;9.978;2023-02-16T07:52:33;4.40;99.90
15241;DHT22;7723;52.170;9.978;2023-02-16T07:55:00;4.60;99.90
15241;DHT22;7723;52.170;9.978;2023-02-16T07:57:28;4.80;99.90
15241;DHT22;7723;52.170;9.978;2023-02-16T07:59:55;5.10;99.90
15241;DHT22;7723;52.170;9.978;2023-02-16T08:02:24;5.40;99.90
15241;DHT22;7723;52.170;9.978;2023-02-16T08:04:52;5.50;99.90
15241;DHT22;7723;52.170;9.978;2023-02-16T08:07:20;5.80;99.90
15241;DHT22;7723;52.170;9.978;2023-02-16T08:09:47;6.00;99.90
15241;DHT22;7723;52.170;9.978;2023-02-16T08:12:15;6.00;99.90
15241;DHT22;7723;52.170;9.978;2023-02-16T08:14:43;6.30;99.90
15241;DHT22;7723;52.170;9.978;2023-02-16T08:17:11;6.40;99.90
15241;DHT22;7723;52.170;9.978;2023-02-16T08:19:40;6.60;99.90
15241;DHT22;7723;52.170;9.978;2023-02-16T08:22:07;6.30;99.90
15241;DHT22;7723;52.170;9.978;2023-02-16T08:24:36;6.10;99.90
15241;DHT22;7723;52.170;9.978;2023-02-16T08:27:04;5.60;99.90
15241;DHT22;7723;52.170;9.978;2023-02-16T08:29:32;5.50;99.90
15241;DHT22;7723;52.170;9.978;2023-02-16T08:31:59;5.40;99.90
15241;DHT22;7723;52.170;9.978;2023-02-16T08:34:29;5.60;99.90
15241;DHT22;7723;52.170;9.978;2023-02-16T08:36:59;5.60;99.90
15241;DHT22;7723;52.170;9.978;2023-02-16T08:39:28;5.70;99.90
15241;DHT22;7723;52.170;9.978;2023-02-16T08:41:56;5.80;99.90
15241;DHT22;7723;52.170;9.978;2023-02-16T08:44:25;5.80;99.90
15241;DHT22;7723;52.170;9.978;2023-02-16T08:46:54;5.80;99.90
15241;DHT22;7723;52.170;9.978;2023-02-16T08:49:22;5.80;99.90
15241;DHT22;7723;52.170;9.978;2023-02-16T08:51:51;5.50;99.90
15241;DHT22;7723;52.170;9.978;2023-02-16T08:54:22;5.40;99.90
15241;DHT22;7723;52.170;9.978;2023-02-16T08:56:51;5.40;99.90
15241;DHT22;7723;52.170;9.978;2023-02-16T08:59:20;5.10;99.90
15241;DHT22;7723;52.170;9.978;2023-02-16T09:01:48;5.60;99.90
15241;DHT22;7723;52.170;9.978;2023-02-16T09:04:16;5.80;99.90
15241;DHT22;7723;52.170;9.978;2023-02-16T09:06:45;6.10;99.90
15241;DHT22;7723;52.170;9.978;2023-02-16T09:09:14;6.80;99.90
15241;DHT22;7723;52.170;9.978;2023-02-16T09:11:43;6.50;99.90
15241;DHT22;7723;52.170;9.978;2023-02-16T09:14:11;6.40;99.90
15241;DHT22;7723;52.170;9.978;2023-02-16T09:16:39;6.40;99.90
15241;DHT22;7723;52.170;9.978;2023-02-16T09:19:12;6.60;99.90
15241;DHT22;7723;52.170;9.978;2023-02-16T09:21:41;6.60;99.90
15241;DHT22;7723;52.170;9.978;2023-02-16T09:24:09;6.80;99.90
15241;DHT22;7723;52.170;9.978;2023-02-16T09:26:38;6.80;99.90
15241;DHT22;7723;52.170;9.978;2023-02-16T09:29:10;6.80;99.90
15241;DHT22;7723;52.170;9.978;2023-02-16T09:31:37;6.80;99.90
15241;DHT22;7723;52.170;9.978;2023-02-16T09:34:07;6.80;99.90
15241;DHT22;7723;52.170;9.978;2023-02-16T09:36:37;6.90;99.90
15241;DHT22;7723;52.170;9.978;2023-02-16T09:39:04;6.90;99.90
15241;DHT22;7723;52.170;9.978;2023-02-16T09:41:44;7.10;99.90
15241;DHT22;7723;52.170;9.978;2023-02-16T09:44:26;6.80;99.90
15241;DHT22;7723;52.170;9.978;2023-02-16T09:46:57;6.70;99.90
15241;DHT22;7723;52.170;9.978;2023-02-16T09:49:30;6.80;99.90
15241;DHT22;7723;52.170;9.978;2023-02-16T09:52:03;6.70;99.90
15241;DHT22;7723;52.170;9.978;2023-02-16T09:54:41;6.80;99.90
15241;DHT22;7723;52.170;9.978;2023-02-16T09:57:18;6.70;99.90
15241;DHT22;7723;52.170;9.978;2023-02-16T09:59:51;6.70;99.90
15241;DHT22;7723;52.170;9.978;2023-02-16T10:02:32;6.60;99.90
15241;DHT22;7723;52.170;9.978;2023-02-16T10:05:18;6.60;99.90
15241;DHT22;7723;52.170;9.978;2023-02-16T10:07:57;6.50;99.90
15241;DHT22;7723;52.170;9.978;2023-02-16T10:10:29;6.50;99.90
15241;DHT22;7723;52.170;9.978;2023-02-16T10:13:02;6.50;99.90
15241;DHT22;7723;52.170;9.978;2023-02-16T10:15:33;6.50;99.90
15241;DHT22;7723;52.170;9.978;2023-02-16T10:18:12;6.50;99.90
15241;DHT22;7723;52.170;9.978;2023-02-16T10:20:44;6.40;99.90
15241;DHT22;7723;52.170;9.978;2023-02-16T10:23:22;6.50;99.90
15241;DHT22;7723;52.170;9.978;2023-02-16T10:25:55;6.70;99.90
15241;DHT22;7723;52.170;9.978;2023-02-16T10:28:31;6.80;99.90
15241;DHT22;7723;52.170;9.978;2023-02-16T10:31:03;7.00;99.90
15241;DHT22;7723;52.170;9.978;2023-02-16T10:33:40;7.00;99.90
15241;DHT22;7723;52.170;9.978;2023-02-16T10:36:15;7.10;99.90
15241;DHT22;7723;52.170;9.978;2023-02-16T10:38:49;7.10;99.90
15241;DHT22;7723;52.170;9.978;2023-02-16T10:41:27;7.20;99.90
15241;DHT22;7723;52.170;9.978;2023-02-16T10:44:01;7.30;99.50
15241;DHT22;7723;52.170;9.978;2023-02-16T10:46:37;7.50;98.40
15241;DHT22;7723;52.170;9.978;2023-02-16T10:49:08;7.60;92.90
15241;DHT22;7723;52.170;9.978;2023-02-16T10:51:37;7.80;84.70
15241;DHT22;7723;52.170;9.978;2023-02-16T10:54:09;7.80;73.40
15241;DHT22;7723;52.170;9.978;2023-02-16T10:56:46;7.90;76.70
15241;DHT22;7723;52.170;9.978;2023-02-16T10:59:18;7.90;70.70
15241;DHT22;7723;52.170;9.978;2023-02-16T11:01:50;7.80;64.80
15241;DHT22;7723;52.170;9.978;2023-02-16T11:04:36;7.60;67.70
15241;DHT22;7723;52.170;9.978;2023-02-16T11:07:07;7.60;64.50
15241;DHT22;7723;52.170;9.978;2023-02-16T11:09:35;7.60;66.20
15241;DHT22;7723;52.170;9.978;2023-02-16T11:12:12;7.70;75.90
15241;DHT22;7723;52.170;9.978;2023-02-16T11:14:47;7.70;64.10
15241;DHT22;7723;52.170;9.978;2023-02-16T11:17:17;7.80;78.40
15241;DHT22;7723;52.170;9.978;2023-02-16T11:19:52;7.70;64.80
15241;DHT22;7723;52.170;9.978;2023-02-16T11:22:26;7.80;69.60
15241;DHT22;7723;52.170;9.978;2023-02-16T11:24:54;7.80;58.60
15241;DHT22;7723;52.170;9.978;2023-02-16T11:27:23;7.70;64.40
15241;DHT22;7723;52.170;9.978;2023-02-16T11:29:50;7.80;65.10
15241;DHT22;7723;52.170;9.978;2023-02-16T11:32:39;7.80;65.30
15241;DHT22;7723;52.170;9.978;2023-02-16T11:35:08;7.90;63.70
15241;DHT22;7723;52.170;9.978;2023-02-16T11:37:36;8.00;64.90
15241;DHT22;7723;52.170;9.978;2023-02-16T11:40:17;7.90;52.30
15241;DHT22;7723;52.170;9.978;2023-02-16T11:42:47;8.00;42.80
15241;DHT22;7723;52.170;9.978;2023-02-16T11:45:23;8.10;48.10
15241;DHT22;7723;52.170;9.978;2023-02-16T11:47:55;8.20;51.60
15241;DHT22;7723;52.170;9.978;2023-02-16T11:50:25;8.20;44.10
15241;DHT22;7723;52.170;9.978;2023-02-16T11:52:56;8.20;46.70
15241;DHT22;7723;52.170;9.978;2023-02-16T11:55:26;8.30;36.50
15241;DHT22;7723;52.170;9.978;2023-02-16T11:58:13;8.10;30.90
15241;DHT22;7723;52.170;9.978;2023-02-16T12:00:48;8.10;35.70
15241;DHT22;7723;52.170;9.978;2023-02-16T12:03:46;7.90;36.20
15241;DHT22;7723;52.170;9.978;2023-02-16T12:06:32;6.90;38.60
15241;DHT22;7723;52.170;9.978;2023-02-16T12:09:17;7.90;38.20
15241;DHT22;7723;52.170;9.978;2023-02-16T12:11:54;7.80;42.60
15241;DHT22;7723;52.170;9.978;2023-02-16T12:14:33;7.80;48.50
15241;DHT22;7723;52.170;9.978;2023-02-16T12:17:11;8.00;42.80
15241;DHT22;7723;52.170;9.978;2023-02-16T12:19:45;8.10;45.20
15241;DHT22;7723;52.170;9.978;2023-02-16T12:22:24;8.20;33.60
15241;DHT22;7723;52.170;9.978;2023-02-16T12:25:04;8.40;31.00
15241;DHT22;7723;52.170;9.978;2023-02-16T12:27:41;8.40;23.20
15241;DHT22;7723;52.170;9.978;2023-02-16T12:30:20;8.50;19.50
15241;DHT22;7723;52.170;9.978;2023-02-16T12:33:00;8.50;14.10
15241;DHT22;7723;52.170;9.978;2023-02-16T12:35:54;8.50;12.90
15241;DHT22;7723;52.170;9.978;2023-02-16T12:38:34;8.50;17.60
15241;DHT22;7723;52.170;9.978;2023-02-16T12:41:13;8.50;14.00
15241;DHT22;7723;52.170;9.978;2023-02-16T12:43:46;8.40;13.10
15241;DHT22;7723;52.170;9.978;2023-02-16T12:46:17;8.50;16.10
15241;DHT22;7723;52.170;9.978;2023-02-16T12:48:50;8.60;13.00
15241;DHT22;7723;52.170;9.978;2023-02-16T12:51:22;8.60;10.10
15241;DHT22;7723;52.170;9.978;2023-02-16T12:53:57;8.60;13.30
15241;DHT22;7723;52.170;9.978;2023-02-16T12:56:30;8.80;8.10
15241;DHT22;7723;52.170;9.978;2023-02-16T12:59:06;8.90;3.30
15241;DHT22;7723;52.170;9.978;2023-02-16T13:01:39;9.00;1.00
15241;DHT22;7723;52.170;9.978;2023-02-16T13:04:16;9.00;1.00
15241;DHT22;7723;52.170;9.978;2023-02-16T13:06:51;9.10;1.00
15241;DHT22;7723;52.170;9.978;2023-02-16T13:09:31;9.30;1.00
15241;DHT22;7723;52.170;9.978;2023-02-16T13:12:06;9.10;1.00
15241;DHT22;7723;52.170;9.978;2023-02-16T13:14:37;9.10;1.00
15241;DHT22;7723;52.170;9.978;2023-02-16T13:17:10;9.10;1.00
15241;DHT22;7723;52.170;9.978;2023-02-16T13:19:38;9.30;1.00
15241;DHT22;7723;52.170;9.978;2023-02-16T13:22:20;9.20;1.00
15241;DHT22;7723;52.170;9.978;2023-02-16T13:25:03;9.10;1.00
15241;DHT22;7723;52.170;9.978;2023-02-16T13:27:41;9.10;1.00
15241;DHT22;7723;52.170;9.978;2023-02-16T13:30:45;9.10;1.00
15241;DHT22;7723;52.170;9.978;2023-02-16T13:33:30;9.10;1.00
15241;DHT22;7723;52.170;9.978;2023-02-16T13:36:31;9.10;1.00
15241;DHT22;7723;52.170;9.978;2023-02-16T13:39:23;9.00;1.00
15241;DHT22;7723;52.170;9.978;2023-02-16T13:42:04;8.90;1.00
15241;DHT22;7723;52.170;9.978;2023-02-16T13:44:42;8.90;1.00
15241;DHT22;7723;52.170;9.978;2023-02-16T13:47:13;8.90;1.00
15241;DHT22;7723;52.170;9.978;2023-02-16T13:49:43;8.90;1.00
15241;DHT22;7723;52.170;9.978;2023-02-16T13:52:27;8.90;1.00
15241;DHT22;7723;52.170;9.978;2023-02-16T13:54:57;8.90;1.00
15241;DHT22;7723;52.170;9.978;2023-02-16T13:57:55;9.00;1.00
15241;DHT22;7723;52.170;9.978;2023-02-16T14:00:28;9.00;2.60
15241;DHT22;7723;52.170;9.978;2023-02-16T14:02:58;9.00;5.20
15241;DHT22;7723;52.170;9.978;2023-02-16T14:05:37;9.00;6.30
15241;DHT22;7723;52.170;9.978;2023-02-16T14:08:11;9.00;9.20
15241;DHT22;7723;52.170;9.978;2023-02-16T14:11:01;9.00;10.30
15241;DHT22;7723;52.170;9.978;2023-02-16T14:13:31;9.00;18.40
15241;DHT22;7723;52.170;9.978;2023-02-16T14:16:03;9.10;12.20
15241;DHT22;7723;52.170;9.978;2023-02-16T14:18:39;9.20;12.70
15241;DHT22;7723;52.170;9.978;2023-02-16T14:21:16;9.20;6.80
15241;DHT22;7723;52.170;9.978;2023-02-16T14:23:44;9.30;2.10
15241;DHT22;7723;52.170;9.978;2023-02-16T14:26:21;9.20;1.00
15241;DHT22;7723;52.170;9.978;2023-02-16T14:28:57;9.10;1.00
15241;DHT22;7723;52.170;9.978;2023-02-16T14:31:28;9.10;4.00
15241;DHT22;7723;52.170;9.978;2023-02-16T14:34:02;9.00;10.60
15241;DHT22;7723;52.170;9.978;2023-02-16T14:36:30;9.00;10.20
15241;DHT22;7723;52.170;9.978;2023-02-16T14:38:58;9.00;10.50
15241;DHT22;7723;52.170;9.978;2023-02-16T14:41:29;8.90;10.60
15241;DHT22;7723;52.170;9.978;2023-02-16T14:44:25;8.90;13.80
15241;DHT22;7723;52.170;9.978;2023-02-16T14:47:04;8.90;14.30
15241;DHT22;7723;52.170;9.978;2023-02-16T14:50:11;9.00;14.10
15241;DHT22;7723;52.170;9.978;2023-02-16T14:52:52;8.90;14.90
15241;DHT22;7723;52.170;9.978;2023-02-16T14:55:39;8.90;15.90
15241;DHT22;7723;52.170;9.978;2023-02-16T14:58:24;8.90;18.30
15241;DHT22;7723;52.170;9.978;2023-02-16T15:00:56;8.80;18.20
15241;DHT22;7723;52.170;9.978;2023-02-16T15:03:39;8.80;20.90
15241;DHT22;7723;52.170;9.978;2023-02-16T15:06:06;8.80;23.80
15241;DHT22;7723;52.170;9.978;2023-02-16T15:08:42;8.70;23.50
15241;DHT22;7723;52.170;9.978;2023-02-16T15:11:18;8.70;24.70
15241;DHT22;7723;52.170;9.978;2023-02-16T15:13:47;8.70;23.00
15241;DHT22;7723;52.170;9.978;2023-02-16T15:16:19;8.60;24.90
15241;DHT22;7723;52.170;9.978;2023-02-16T15:18:49;8.60;30.50
15241;DHT22;7723;52.170;9.978;2023-02-16T15:21:18;8.60;30.00
15241;DHT22;7723;52.170;9.978;2023-02-16T15:23:51;8.60;29.60
15241;DHT22;7723;52.170;9.978;2023-02-16T15:26:20;8.60;26.40
15241;DHT22;7723;52.170;9.978;2023-02-16T15:28:55;8.50;28.30
15241;DHT22;7723;52.170;9.978;2023-02-16T15:31:26;8.50;32.30
15241;DHT22;7723;52.170;9.978;2023-02-16T15:33:56;8.40;37.00
15241;DHT22;7723;52.170;9.978;2023-02-16T15:36:31;8.40;38.50
15241;DHT22;7723;52.170;9.978;2023-02-16T15:39:00;8.40;48.10
15241;DHT22;7723;52.170;9.978;2023-02-16T15:41:29;8.30;46.90
15241;DHT22;7723;52.170;9.978;2023-02-16T15:43:58;8.30;47.70
15241;DHT22;7723;52.170;9.978;2023-02-16T15:46:29;8.20;48.20
15241;DHT22;7723;52.170;9.978;2023-02-16T15:48:58;8.20;53.20
15241;DHT22;7723;52.170;9.978;2023-02-16T15:51:27;8.20;56.40
15241;DHT22;7723;52.170;9.978;2023-02-16T15:53:58;8.20;61.30
15241;DHT22;7723;52.170;9.978;2023-02-16T15:56:32;8.20;60.80
15241;DHT22;7723;52.170;9.978;2023-02-16T15:59:03;8.20;63.70
15241;DHT22;7723;52.170;9.978;2023-02-16T16:01:32;8.10;67.90
15241;DHT22;7723;52.170;9.978;2023-02-16T16:04:04;8.10;71.60
15241;DHT22;7723;52.170;9.978;2023-02-16T16:06:34;8.10;77.90
15241;DHT22;7723;52.170;9.978;2023-02-16T16:09:03;8.00;83.10
15241;DHT22;7723;52.170;9.978;2023-02-16T16:11:34;8.00;90.20
15241;DHT22;7723;52.170;9.978;2023-02-16T16:14:04;7.90;91.40
15241;DHT22;7723;52.170;9.978;2023-02-16T16:16:32;8.00;90.00
15241;DHT22;7723;52.170;9.978;2023-02-16T16:19:06;7.90;93.30
15241;DHT22;7723;52.170;9.978;2023-02-16T16:21:44;7.80;94.10
15241;DHT22;7723;52.170;9.978;2023-02-16T16:24:11;7.90;95.40
15241;DHT22;7723;52.170;9.978;2023-02-16T16:26:50;7.80;98.40
15241;DHT22;7723;52.170;9.978;2023-02-16T16:29:30;7.80;99.90
15241;DHT22;7723;52.170;9.978;2023-02-16T16:31:59;7.80;99.90
15241;DHT22;7723;52.170;9.978;2023-02-16T16:34:32;7.70;99.90
15241;DHT22;7723;52.170;9.978;2023-02-16T16:37:00;7.80;99.90
15241;DHT22;7723;52.170;9.978;2023-02-16T16:39:29;7.80;99.90
15241;DHT22;7723;52.170;9.978;2023-02-16T16:42:16;7.70;99.90
15241;DHT22;7723;52.170;9.978;2023-02-16T16:44:53;7.70;99.90
15241;DHT22;7723;52.170;9.978;2023-02-16T16:47:24;7.70;99.90